Time;durP1;ratioP1;P1;durP2;ratioP2;P2;SDS_P1;SDS_P2;PMS_P1;PMS_P2;Temp;Humidity;BMP_temperature;BMP_pressure;BME280_temperature;BME280_humidity;BME280_pressure;Samples;Min_cycle;Max_cycle;Signal;HPM_P1;HPM_P2
2023/04/22 00:00:57;;;;;;;14.80;10.80;;;;;;;4.92;62.54;97781.55;106755;1276;24538;-74
2023/04/22 00:03:26;;;;;;;13.70;11.60;;;;;;;4.89;62.58;97779.84;106737;1268;25774;-79
2023/04/22 00:05:55;;;;;;;13.70;11.40;;;;;;;4.82;63.69;97778.29;107092;1276;24256;-77
2023/04/22 00:08:24;;;;;;;13.80;11.20;;;;;;;4.77;64.05;97776.13;106692;1271;22526;-79
2023/04/22 00:10:52;;;;;;;12.40;11.10;;;;;;;4.77;64.25;97776.52;106905;1276;25617;-78
2023/04/22 00:13:20;;;;;;;13.10;11.10;;;;;;;4.77;64.65;97779.50;106988;1276;22529;-76
2023/04/22 00:15:48;;;;;;;13.00;11.60;;;;;;;4.76;64.48;97777.38;106800;1276;22528;-77
2023/04/22 00:18:16;;;;;;;13.70;10.60;;;;;;;4.75;64.91;97779.11;107038;1276;22520;-74
2023/04/22 00:20:44;;;;;;;13.20;11.20;;;;;;;4.75;64.37;97777.69;106925;1276;22520;-75
2023/04/22 00:23:12;;;;;;;14.20;11.20;;;;;;;4.76;64.75;97774.48;106861;1273;22565;-73
2023/04/22 00:25:41;;;;;;;12.40;11.10;;;;;;;4.77;65.53;97772.61;106536;1276;23121;-75
2023/04/22 00:28:09;;;;;;;14.40;9.70;;;;;;;4.81;66.02;97774.32;106930;1276;22572;-74
2023/04/22 00:30:37;;;;;;;11.70;10.50;;;;;;;4.85;66.54;97769.69;106621;1276;22631;-75
2023/04/22 00:33:05;;;;;;;13.10;11.60;;;;;;;4.88;67.44;97768.96;106794;1276;24345;-75
2023/04/22 00:35:33;;;;;;;12.90;11.70;;;;;;;4.85;67.80;97767.40;106718;1276;22708;-76
2023/04/22 00:38:01;;;;;;;14.40;11.30;;;;;;;4.83;67.55;97769.58;106818;1276;22532;-75
2023/04/22 00:40:29;;;;;;;13.50;12.00;;;;;;;4.80;67.94;97764.88;106796;1276;22531;-75
2023/04/22 00:42:58;;;;;;;12.50;11.10;;;;;;;4.76;67.95;97767.05;106946;1276;24433;-76
2023/04/22 00:45:26;;;;;;;13.80;10.70;;;;;;;4.76;68.17;97768.83;106884;1275;22571;-77
2023/04/22 00:47:55;;;;;;;13.80;11.20;;;;;;;4.77;68.44;97764.13;107170;1276;22612;-75
2023/04/22 00:50:23;;;;;;;13.80;12.20;;;;;;;4.76;68.76;97763.96;106623;1275;22625;-76
2023/04/22 00:52:52;;;;;;;13.00;11.70;;;;;;;4.71;68.75;97767.36;106659;1276;24096;-76
2023/04/22 00:55:20;;;;;;;12.80;11.20;;;;;;;4.68;68.43;97768.27;106933;1276;22732;-76
2023/04/22 00:57:49;;;;;;;12.70;11.20;;;;;;;4.65;68.30;97763.30;107022;1276;24202;-75
2023/04/22 01:00:19;;;;;;;13.60;10.70;;;;;;;4.68;68.23;97765.98;107014;1276;22608;-75
2023/04/22 01:02:47;;;;;;;14.00;10.60;;;;;;;4.75;67.90;97768.06;106931;1276;22949;-75
2023/04/22 01:05:15;;;;;;;15.00;10.60;;;;;;;4.81;68.62;97768.18;106938;1276;22745;-76
2023/04/22 01:07:43;;;;;;;12.20;11.00;;;;;;;4.84;68.84;97766.16;107086;1276;22530;-78
2023/04/22 01:10:12;;;;;;;12.10;10.50;;;;;;;4.87;68.89;97768.09;107001;1276;22729;-77
2023/04/22 01:12:40;;;;;;;19.90;11.60;;;;;;;4.87;68.80;97769.05;106994;1276;25614;-78
2023/04/22 01:15:08;;;;;;;13.90;10.70;;;;;;;4.86;68.20;97769.42;106743;1276;22539;-76
2023/04/22 01:17:36;;;;;;;11.10;10.00;;;;;;;4.85;68.10;97766.32;106722;1276;24371;-76
2023/04/22 01:20:09;;;;;;;11.40;10.30;;;;;;;4.81;67.54;97769.46;106753;1276;22543;-76
2023/04/22 01:22:43;;;;;;;11.70;10.10;;;;;;;4.80;66.84;97765.63;106759;1276;26655;-76
2023/04/22 01:25:11;;;;;;;9.10;8.20;;;;;;;4.81;66.75;97768.98;106501;1276;22633;-76
2023/04/22 01:27:39;;;;;;;10.20;9.20;;;;;;;4.77;67.20;97769.95;106714;1276;25230;-77
2023/04/22 01:30:09;;;;;;;11.50;10.40;;;;;;;4.70;68.72;97769.71;106736;1276;25391;-78
2023/04/22 01:32:39;;;;;;;14.10;10.70;;;;;;;4.59;68.03;97767.12;106502;1276;25529;-77
2023/04/22 01:35:09;;;;;;;12.20;10.80;;;;;;;4.49;67.38;97768.86;106733;1276;24371;-77
2023/04/22 01:37:37;;;;;;;14.80;12.10;;;;;;;4.47;66.87;97768.70;106515;1276;25299;-77
2023/04/22 01:40:08;;;;;;;15.20;13.60;;;;;;;4.46;66.98;97764.09;106853;1276;23383;-78
2023/04/22 01:42:37;;;;;;;14.60;13.30;;;;;;;4.46;67.06;97766.66;106435;1276;25264;-77
2023/04/22 01:45:05;;;;;;;12.50;10.30;;;;;;;4.44;66.62;97769.70;106909;1276;25388;-79
2023/04/22 01:47:33;;;;;;;12.60;10.20;;;;;;;4.36;67.47;97767.42;106805;1276;22577;-77
2023/04/22 01:50:01;;;;;;;10.60;8.30;;;;;;;4.30;68.30;97768.58;106963;1276;24252;-76
2023/04/22 01:52:30;;;;;;;12.90;10.20;;;;;;;4.26;68.23;97768.24;106695;1276;24069;-76
2023/04/22 01:54:58;;;;;;;15.90;9.80;;;;;;;4.25;67.83;97769.09;106939;1276;22536;-78
2023/04/22 01:57:26;;;;;;;11.20;9.90;;;;;;;4.21;68.74;97770.63;106856;1276;25237;-76
2023/04/22 01:59:54;;;;;;;11.80;9.40;;;;;;;4.13;68.31;97767.77;106512;1276;22533;-76
2023/04/22 02:02:22;;;;;;;10.70;9.40;;;;;;;4.13;68.40;97763.86;106733;1275;25276;-76
2023/04/22 02:04:50;;;;;;;11.40;9.30;;;;;;;4.08;69.35;97765.12;106772;1276;22532;-76
2023/04/22 02:07:18;;;;;;;11.40;9.60;;;;;;;3.96;70.69;97769.01;106740;1276;22528;-76
2023/04/22 02:09:46;;;;;;;9.20;7.70;;;;;;;3.88;71.73;97768.00;106399;1276;22630;-76
2023/04/22 02:12:17;;;;;;;9.50;8.50;;;;;;;3.82;71.97;97763.39;106745;1276;22637;-76
2023/04/22 02:14:45;;;;;;;11.00;9.70;;;;;;;3.79;71.89;97765.55;106696;1276;22637;-75
2023/04/22 02:17:16;;;;;;;10.70;9.60;;;;;;;3.77;71.46;97765.70;106699;1276;22647;-75
2023/04/22 02:19:45;;;;;;;12.10;10.10;;;;;;;3.77;70.60;97761.13;106714;1276;23097;-76
2023/04/22 02:22:13;;;;;;;14.90;9.90;;;;;;;3.79;70.20;97761.41;106715;1276;22575;-75
2023/04/22 02:24:42;;;;;;;11.90;9.20;;;;;;;3.72;69.95;97761.41;106713;1255;22598;-75
2023/04/22 02:27:10;;;;;;;13.00;10.00;;;;;;;3.59;70.72;97763.63;106713;1276;25300;-76
2023/04/22 02:29:38;;;;;;;10.80;9.30;;;;;;;3.49;71.48;97765.16;106514;1253;22782;-75
2023/04/22 02:32:07;;;;;;;13.00;10.00;;;;;;;3.45;71.97;97765.17;106730;1276;22500;-75
2023/04/22 02:34:35;;;;;;;12.40;9.30;;;;;;;3.44;70.95;97764.64;106731;1276;22623;-76
2023/04/22 02:37:03;;;;;;;13.00;11.70;;;;;;;3.46;71.20;97768.05;106730;1276;22544;-76
2023/04/22 02:39:31;;;;;;;14.30;10.80;;;;;;;3.44;70.66;97770.39;106726;1276;25389;-76
2023/04/22 02:42:00;;;;;;;14.80;11.70;;;;;;;3.39;70.79;97768.23;106549;1276;22785;-76
2023/04/22 02:44:28;;;;;;;14.50;12.30;;;;;;;3.33;71.09;97769.25;106425;1276;24110;-75
2023/04/22 02:46:56;;;;;;;18.50;14.00;;;;;;;3.24;71.45;97767.63;106718;1276;25674;-75
2023/04/22 02:49:24;;;;;;;18.20;12.90;;;;;;;3.15;71.76;97767.71;106470;1276;23196;-76
2023/04/22 02:51:52;;;;;;;19.00;17.00;;;;;;;3.13;72.31;97765.24;106440;1276;22642;-76
2023/04/22 02:54:20;;;;;;;17.40;14.40;;;;;;;3.14;71.76;97764.45;106795;1276;22523;-77
2023/04/22 02:56:48;;;;;;;19.60;14.90;;;;;;;3.17;72.44;97764.00;107009;1276;22520;-77
2023/04/22 02:59:16;;;;;;;14.40;12.80;;;;;;;3.15;73.23;97767.34;106920;1276;25347;-76
2023/04/22 03:01:44;;;;;;;25.20;22.10;;;;;;;3.10;73.72;97768.52;106975;1276;25255;-77
2023/04/22 03:04:20;;;;;;;24.40;21.80;;;;;;;3.06;73.44;97765.77;106990;1276;22534;-78
2023/04/22 03:06:49;;;;;;;22.00;19.70;;;;;;;3.05;73.52;97765.44;106805;1276;25470;-76
2023/04/22 03:09:17;;;;;;;19.60;17.50;;;;;;;3.03;73.43;97762.46;106675;1276;22609;-75
2023/04/22 03:11:45;;;;;;;18.10;16.20;;;;;;;3.03;73.32;97765.80;106433;1276;22490;-75
2023/04/22 03:14:13;;;;;;;22.40;18.50;;;;;;;3.05;74.15;97766.66;106729;1276;25385;-75
2023/04/22 03:16:41;;;;;;;23.00;20.40;;;;;;;3.03;74.10;97768.73;106727;1276;22648;-75
2023/04/22 03:19:09;;;;;;;25.50;23.10;;;;;;;3.00;74.13;97769.66;106699;1276;22814;-76
2023/04/22 03:21:37;;;;;;;25.80;23.40;;;;;;;2.97;74.00;97769.73;106572;1276;22532;-75
2023/04/22 03:24:05;;;;;;;29.20;26.60;;;;;;;2.94;75.08;97769.45;106711;1276;22765;-76
2023/04/22 03:26:34;;;;;;;22.20;19.80;;;;;;;2.91;74.78;97767.19;106508;1276;24337;-76
2023/04/22 03:29:03;;;;;;;18.60;16.70;;;;;;;2.89;74.98;97771.48;106873;1276;25611;-75
2023/04/22 03:31:31;;;;;;;15.90;14.20;;;;;;;2.92;75.69;97767.84;106731;1276;25327;-75
2023/04/22 03:34:00;;;;;;;16.70;14.50;;;;;;;2.94;77.37;97768.39;106711;1276;25400;-75
2023/04/22 03:36:29;;;;;;;15.10;13.60;;;;;;;2.95;77.04;97769.56;106767;1276;22651;-75
2023/04/22 03:38:57;;;;;;;17.20;14.90;;;;;;;2.97;76.77;97768.45;106565;1276;22617;-74
2023/04/22 03:41:30;;;;;;;18.00;16.00;;;;;;;2.97;76.85;97767.35;106691;1276;22579;-75
2023/04/22 03:43:58;;;;;;;18.00;16.10;;;;;;;2.95;77.83;97767.98;106568;1276;22533;-76
2023/04/22 03:46:29;;;;;;;18.80;17.10;;;;;;;2.95;77.78;97768.13;106873;1276;22782;-75
2023/04/22 03:49:03;;;;;;;18.80;16.80;;;;;;;2.99;78.43;97772.58;106769;1276;22540;-75
2023/04/22 03:51:34;;;;;;;19.10;16.90;;;;;;;3.00;78.04;97769.36;106819;1275;25289;-75
2023/04/22 03:54:06;;;;;;;22.00;19.80;;;;;;;3.05;77.12;97769.12;106900;1276;22792;-78
2023/04/22 03:56:35;;;;;;;22.00;19.70;;;;;;;3.09;76.50;97772.20;106750;1276;22789;-80
2023/04/22 03:59:03;;;;;;;20.10;18.20;;;;;;;3.07;76.25;97777.02;106741;1276;22575;-78
2023/04/22 04:01:32;;;;;;;19.80;17.80;;;;;;;3.05;76.45;97775.34;106787;1276;22630;-77
2023/04/22 04:04:03;;;;;;;20.10;16.10;;;;;;;3.08;76.23;97776.05;106846;1276;25323;-79
2023/04/22 04:06:50;;;;;;;19.10;17.20;;;;;;;3.11;76.82;97775.60;106803;1276;24260;-77
2023/04/22 04:09:18;;;;;;;20.10;17.70;;;;;;;3.12;77.17;97778.61;106709;1275;25388;-78
2023/04/22 04:11:47;;;;;;;20.00;17.90;;;;;;;3.12;76.96;97777.82;106950;1276;22528;-78
2023/04/22 04:14:15;;;;;;;20.90;18.60;;;;;;;3.13;78.16;97781.22;106909;1276;22524;-78
2023/04/22 04:16:46;;;;;;;20.20;18.00;;;;;;;3.16;78.94;97775.92;106660;1276;25385;-78
2023/04/22 04:19:20;;;;;;;18.30;16.40;;;;;;;3.22;78.21;97778.27;106895;1275;22641;-78
2023/04/22 04:21:48;;;;;;;17.40;15.30;;;;;;;3.30;77.77;97777.00;106846;1275;25319;-78
2023/04/22 04:24:16;;;;;;;20.10;17.70;;;;;;;3.37;77.45;97776.73;106837;1276;23153;-78
2023/04/22 04:26:48;;;;;;;18.20;16.30;;;;;;;3.40;77.20;97777.98;106831;1276;22776;-78
2023/04/22 04:29:22;;;;;;;17.20;15.10;;;;;;;3.42;77.02;97779.27;106823;1276;22632;-78
2023/04/22 04:32:09;;;;;;;18.80;16.30;;;;;;;3.46;77.97;97780.96;106832;1276;22626;-78
2023/04/22 04:34:38;;;;;;;17.30;15.50;;;;;;;3.51;77.98;97785.47;106928;1275;22539;-78
2023/04/22 04:37:08;;;;;;;18.20;16.30;;;;;;;3.61;77.32;97783.09;106895;1276;24387;-78
2023/04/22 04:39:43;;;;;;;16.10;14.40;;;;;;;3.74;76.73;97780.08;106973;1276;22583;-78
2023/04/22 04:42:13;;;;;;;17.00;15.20;;;;;;;3.83;76.77;97779.17;106825;1276;22597;-78
2023/04/22 04:44:49;;;;;;;18.10;16.00;;;;;;;3.96;76.30;97782.23;106684;1276;24208;-78
2023/04/22 04:47:18;;;;;;;18.90;15.40;;;;;;;4.02;76.66;97782.16;106918;1276;24470;-78
2023/04/22 04:49:48;;;;;;;22.70;14.80;;;;;;;4.07;77.07;97785.33;106873;1276;22536;-77
2023/04/22 04:52:17;;;;;;;16.00;14.40;;;;;;;4.12;77.11;97786.58;106590;1276;22611;-78
2023/04/22 04:54:45;;;;;;;16.00;13.50;;;;;;;4.22;77.52;97783.90;106636;1276;22530;-78
2023/04/22 04:57:13;;;;;;;14.30;12.30;;;;;;;4.37;77.99;97781.45;106440;1276;24100;-76
2023/04/22 04:59:41;;;;;;;14.90;12.80;;;;;;;4.52;77.24;97789.41;106971;1276;22862;-80
2023/04/22 05:02:10;;;;;;;14.90;13.50;;;;;;;4.64;76.76;97784.64;106867;1276;23162;-79
2023/04/22 05:04:38;;;;;;;18.40;13.60;;;;;;;4.76;76.57;97786.87;106859;1276;22646;-77
2023/04/22 05:07:07;;;;;;;17.30;15.40;;;;;;;4.85;76.23;97787.48;106867;1276;24707;-78
2023/04/22 05:09:36;;;;;;;19.40;17.00;;;;;;;4.92;76.04;97792.24;106705;1276;22637;-81
2023/04/22 05:12:06;;;;;;;20.60;18.70;;;;;;;4.99;75.86;97790.27;106837;1276;22547;-79
2023/04/22 05:14:34;;;;;;;25.50;22.50;;;;;;;5.06;75.86;97790.93;106968;1276;22790;-80
2023/04/22 05:17:03;;;;;;;25.80;22.70;;;;;;;5.14;75.46;97787.62;106755;1276;22533;-79
2023/04/22 05:19:31;;;;;;;25.80;21.70;;;;;;;5.26;75.81;97786.07;106669;1276;25384;-82
2023/04/22 05:21:58;;;;;;;26.40;22.90;;;;;;;5.41;75.64;97787.52;106674;1275;22792;-77
2023/04/22 05:24:27;;;;;;;49.20;28.80;;;;;;;5.59;75.67;97790.09;106702;1253;22747;-77
2023/04/22 05:26:58;;;;;;;48.70;31.40;;;;;;;5.76;75.44;97791.92;106694;1276;24200;-77
2023/04/22 05:29:27;;;;;;;41.00;29.10;;;;;;;5.91;75.54;97794.16;106902;1276;22524;-77
2023/04/22 05:31:55;;;;;;;48.80;31.00;;;;;;;6.05;75.56;97791.25;106898;1276;22612;-78
2023/04/22 05:34:23;;;;;;;41.60;26.60;;;;;;;6.20;75.34;97793.09;106868;1275;22934;-78
2023/04/22 05:36:53;;;;;;;52.40;31.60;;;;;;;6.35;75.30;97794.20;106835;1276;22923;-78
2023/04/22 05:39:22;;;;;;;37.70;24.90;;;;;;;6.53;75.16;97795.11;107016;1276;22540;-82
2023/04/22 05:41:50;;;;;;;30.10;23.70;;;;;;;6.71;75.18;97797.38;106946;1276;24145;-82
2023/04/22 05:44:18;;;;;;;30.80;24.00;;;;;;;6.90;74.97;97794.75;106689;1276;26516;-82
2023/04/22 05:46:46;;;;;;;31.30;23.40;;;;;;;7.06;74.88;97790.67;106755;1276;22537;-82
2023/04/22 05:49:15;;;;;;;27.40;23.40;;;;;;;7.26;74.96;97794.56;106784;1274;176912;-79
2023/04/22 05:52:12;;;;;;;29.90;26.10;;;;;;;7.49;74.70;97785.92;106833;1276;24486;-81
2023/04/22 05:54:49;;;;;;;29.00;25.40;;;;;;;7.70;74.47;97785.19;106888;1276;22527;-79
2023/04/22 05:57:17;;;;;;;30.80;24.90;;;;;;;7.91;74.34;97787.09;106895;1276;22534;-76
2023/04/22 05:59:46;;;;;;;29.70;24.40;;;;;;;8.12;74.21;97787.29;106739;1276;22520;-77
2023/04/22 06:02:15;;;;;;;22.90;20.50;;;;;;;8.34;74.03;97790.07;106747;1276;24381;-77
2023/04/22 06:04:43;;;;;;;22.90;19.10;;;;;;;8.56;73.73;97792.67;106755;1276;22528;-76
2023/04/22 06:07:11;;;;;;;18.70;15.80;;;;;;;8.78;73.43;97792.61;106921;1276;22532;-76
2023/04/22 06:09:39;;;;;;;18.50;16.40;;;;;;;8.99;73.65;97793.48;106872;1276;24334;-76
2023/04/22 06:12:09;;;;;;;21.30;15.70;;;;;;;9.19;72.74;97795.14;106703;1276;22527;-77
2023/04/22 06:14:37;;;;;;;22.90;18.50;;;;;;;9.40;72.63;97795.09;106884;1276;25508;-77
2023/04/22 06:17:05;;;;;;;20.30;17.40;;;;;;;9.63;72.77;97796.48;106858;1276;22580;-77
2023/04/22 06:19:33;;;;;;;23.90;17.00;;;;;;;9.85;72.48;97798.80;106985;1276;23163;-77
2023/04/22 06:22:01;;;;;;;22.90;16.30;;;;;;;10.08;72.06;97800.10;106856;1276;22535;-76
2023/04/22 06:24:29;;;;;;;17.00;14.40;;;;;;;10.31;71.84;97801.05;106985;1276;24280;-78
2023/04/22 06:26:57;;;;;;;14.70;13.20;;;;;;;10.55;71.34;97801.34;106755;1276;25404;-77
2023/04/22 06:29:26;;;;;;;17.40;12.00;;;;;;;10.78;70.88;97803.30;106729;1276;24341;-78
2023/04/22 06:31:54;;;;;;;15.90;14.30;;;;;;;10.99;70.13;97800.83;106859;1276;24352;-78
2023/04/22 06:34:23;;;;;;;17.20;14.40;;;;;;;11.20;69.71;97801.45;106883;1276;22785;-76
2023/04/22 06:36:52;;;;;;;13.90;12.50;;;;;;;11.39;68.71;97802.02;106770;1276;22538;-77
2023/04/22 06:39:20;;;;;;;12.20;10.90;;;;;;;11.59;68.98;97795.95;106691;1255;25636;-77
2023/04/22 06:42:14;;;;;;;14.10;12.00;;;;;;;11.78;68.21;97792.38;106638;1276;22532;-77
2023/04/22 06:45:03;;;;;;;14.80;13.00;;;;;;;11.96;67.95;97795.14;106669;1276;22574;-77
2023/04/22 06:47:42;;;;;;;13.80;12.20;;;;;;;12.14;67.66;97795.70;106860;1276;22657;-77
2023/04/22 06:50:14;;;;;;;12.30;11.10;;;;;;;12.33;67.47;97797.48;106867;1276;25366;-77
2023/04/22 06:53:00;;;;;;;12.90;11.60;;;;;;;12.51;66.74;97797.77;106699;1276;22745;-77
2023/04/22 06:55:28;;;;;;;13.20;11.40;;;;;;;12.67;66.60;97795.36;106715;1276;25420;-77
2023/04/22 06:57:56;;;;;;;12.40;10.90;;;;;;;12.81;65.97;97792.60;106709;1276;23894;-76
2023/04/22 07:00:27;;;;;;;15.10;11.50;;;;;;;12.93;65.52;97791.79;106700;1276;24361;-76
2023/04/22 07:02:56;;;;;;;12.90;11.50;;;;;;;13.06;64.63;97791.39;106676;1276;22566;-76
2023/04/22 07:05:25;;;;;;;15.50;11.70;;;;;;;13.20;64.19;97792.88;106767;1276;25468;-76
2023/04/22 07:07:53;;;;;;;13.00;10.90;;;;;;;13.33;64.13;97789.39;106698;1276;24112;-78
2023/04/22 07:10:23;;;;;;;13.10;11.20;;;;;;;13.47;63.33;97794.16;106829;1276;23030;-77
2023/04/22 07:13:10;;;;;;;10.80;9.50;;;;;;;13.63;63.53;97793.54;106738;1276;22572;-76
2023/04/22 07:15:38;;;;;;;11.80;9.80;;;;;;;13.79;62.29;97792.96;106752;1276;25343;-76
2023/04/22 07:18:06;;;;;;;18.00;10.40;;;;;;;13.91;60.92;97793.88;106729;1276;22563;-77
2023/04/22 07:20:34;;;;;;;10.60;8.60;;;;;;;14.06;60.89;97792.04;106888;1276;22585;-78
2023/04/22 07:23:01;;;;;;;11.40;8.90;;;;;;;14.21;60.67;97790.06;106738;1276;22657;-78
2023/04/22 07:25:29;;;;;;;13.60;9.50;;;;;;;14.36;60.44;97790.14;106959;1276;24301;-78
2023/04/22 07:27:57;;;;;;;10.90;7.90;;;;;;;14.50;59.46;97790.05;106935;1276;24374;-78
2023/04/22 07:30:25;;;;;;;9.80;8.50;;;;;;;14.64;59.00;97793.53;106904;1276;22545;-78
2023/04/22 07:32:54;;;;;;;8.80;6.80;;;;;;;14.77;57.87;97790.86;106939;1276;25510;-79
2023/04/22 07:35:22;;;;;;;11.30;8.00;;;;;;;14.89;54.81;97793.57;106925;1276;22675;-78
2023/04/22 07:37:50;;;;;;;9.90;7.00;;;;;;;15.00;54.60;97793.21;106906;1276;22521;-77
2023/04/22 07:40:18;;;;;;;8.20;6.70;;;;;;;15.12;53.76;97795.67;106841;1276;22640;-78
2023/04/22 07:42:46;;;;;;;11.10;6.70;;;;;;;15.24;53.17;97793.77;106704;1276;22647;-79
2023/04/22 07:45:14;;;;;;;10.80;6.80;;;;;;;15.37;53.64;97794.04;106879;1276;24338;-79
2023/04/22 07:47:42;;;;;;;7.00;5.80;;;;;;;15.53;52.57;97790.39;106846;1276;24222;-78
2023/04/22 07:50:10;;;;;;;8.50;6.40;;;;;;;15.66;51.93;97789.17;106967;1258;24240;-79
2023/04/22 07:52:39;;;;;;;10.30;6.70;;;;;;;15.76;50.38;97793.13;106737;1275;22796;-81
2023/04/22 07:55:07;;;;;;;13.90;5.80;;;;;;;15.86;49.41;97792.46;107240;1275;25983;-80
2023/04/22 07:57:37;;;;;;;9.60;6.60;;;;;;;15.97;49.44;97791.42;106955;1275;25237;-79
2023/04/22 08:00:07;;;;;;;9.00;6.30;;;;;;;16.04;47.06;97790.48;107116;1275;22523;-79
2023/04/22 08:02:42;;;;;;;8.20;6.20;;;;;;;16.05;46.60;97788.45;107196;1275;22540;-79
2023/04/22 08:05:11;;;;;;;8.00;6.10;;;;;;;16.13;47.33;97788.33;107252;1269;25000;-78
2023/04/22 08:07:39;;;;;;;8.90;6.50;;;;;;;16.25;47.46;97787.84;106838;1276;22979;-78
2023/04/22 08:10:07;;;;;;;6.80;5.30;;;;;;;16.36;45.72;97787.29;106904;1276;22573;-77
2023/04/22 08:12:36;;;;;;;7.60;5.30;;;;;;;16.51;45.46;97784.13;107200;1276;25385;-80
2023/04/22 08:15:04;;;;;;;8.90;6.10;;;;;;;16.75;45.34;97786.02;107912;1276;22616;-79
2023/04/22 08:17:32;;;;;;;8.60;6.30;;;;;;;16.95;44.77;97787.95;107415;1276;24247;-77
2023/04/22 08:20:01;;;;;;;9.40;5.60;;;;;;;16.96;42.49;97792.22;107345;1276;22664;-77
2023/04/22 08:22:29;;;;;;;7.50;5.40;;;;;;;17.01;42.04;97794.14;107272;1276;22543;-77
2023/04/22 08:24:57;;;;;;;8.60;5.70;;;;;;;17.14;41.98;97793.45;107062;1260;22527;-79
2023/04/22 08:27:24;;;;;;;8.80;5.50;;;;;;;17.28;40.70;97796.35;107012;1276;25918;-80
2023/04/22 08:29:52;;;;;;;6.50;5.60;;;;;;;17.32;40.69;97793.86;106892;1276;25881;-80
2023/04/22 08:32:22;;;;;;;9.80;6.20;;;;;;;17.37;41.26;97789.04;107172;1276;24193;-81
2023/04/22 08:34:50;;;;;;;8.40;5.30;;;;;;;17.40;40.19;97790.30;107052;1271;22584;-83
2023/04/22 08:37:20;;;;;;;6.90;5.20;;;;;;;17.42;41.77;97788.17;106877;1276;22547;-81
2023/04/22 08:39:48;;;;;;;7.60;5.80;;;;;;;17.58;40.01;97786.44;106809;1276;22643;-81
2023/04/22 08:42:19;;;;;;;7.90;5.80;;;;;;;17.67;38.50;97789.24;106885;1276;22563;-81
2023/04/22 08:44:47;;;;;;;8.00;6.10;;;;;;;17.68;39.04;97784.21;106876;1276;22564;-80
2023/04/22 08:47:18;;;;;;;8.00;6.40;;;;;;;17.79;39.87;97784.21;106926;1255;24184;-81
2023/04/22 08:49:46;;;;;;;7.80;5.40;;;;;;;17.95;39.38;97784.09;107529;1276;24232;-80
2023/04/22 08:52:14;;;;;;;10.10;5.50;;;;;;;18.00;39.41;97786.24;107113;1276;22530;-79
2023/04/22 08:54:42;;;;;;;8.90;5.70;;;;;;;18.10;38.70;97785.34;107116;1276;22540;-80
2023/04/22 08:57:12;;;;;;;7.70;5.60;;;;;;;18.16;37.66;97784.57;107097;1276;24832;-79
2023/04/22 08:59:40;;;;;;;8.30;6.10;;;;;;;18.20;37.63;97784.90;107221;1276;22532;-78
2023/04/22 09:02:16;;;;;;;7.30;5.40;;;;;;;18.25;36.67;97785.71;107118;1276;22527;-78
2023/04/22 09:04:48;;;;;;;8.40;6.40;;;;;;;18.32;37.65;97782.78;107004;1276;25274;-80
2023/04/22 09:07:24;;;;;;;7.60;5.90;;;;;;;18.44;36.97;97779.47;107128;1266;22541;-78
2023/04/22 09:09:56;;;;;;;7.20;5.80;;;;;;;18.43;36.91;97779.07;107038;1266;22527;-77
2023/04/22 09:12:24;;;;;;;8.40;5.70;;;;;;;18.51;37.03;97777.61;107041;1276;22572;-77
2023/04/22 09:14:53;;;;;;;10.70;5.50;;;;;;;18.54;35.96;97777.54;106884;1276;22614;-78
2023/04/22 09:17:33;;;;;;;10.30;6.60;;;;;;;18.58;36.75;97777.77;106997;1276;22549;-76
2023/04/22 09:20:05;;;;;;;8.90;5.60;;;;;;;18.75;37.32;97781.73;107034;1276;22563;-76
2023/04/22 09:22:46;;;;;;;8.20;5.60;;;;;;;18.90;36.94;97779.86;106771;1276;24263;-79
2023/04/22 09:25:16;;;;;;;8.00;5.80;;;;;;;18.97;36.41;97781.41;106971;1276;23915;-80
2023/04/22 09:27:49;;;;;;;6.40;5.70;;;;;;;19.01;35.93;97777.14;106960;1276;22542;-78
2023/04/22 09:30:22;;;;;;;9.90;5.90;;;;;;;19.01;36.09;97775.66;106883;1276;22528;-78
2023/04/22 09:32:53;;;;;;;7.30;5.10;;;;;;;19.03;35.91;97773.52;106937;1276;22644;-78
2023/04/22 09:35:30;;;;;;;9.50;6.50;;;;;;;19.14;36.34;97769.92;106914;1276;22532;-80
2023/04/22 09:38:00;;;;;;;6.70;5.30;;;;;;;19.27;35.69;97769.02;106947;1276;22526;-79
2023/04/22 09:40:29;;;;;;;7.90;5.50;;;;;;;19.22;35.65;97763.23;106908;1276;25471;-78
2023/04/22 09:43:00;;;;;;;8.00;5.40;;;;;;;19.23;34.27;97763.10;106945;1276;25236;-79
2023/04/22 09:45:30;;;;;;;7.70;5.60;;;;;;;19.23;34.72;97756.84;107394;1266;22648;-80
2023/04/22 09:48:10;;;;;;;7.30;5.90;;;;;;;19.24;34.11;97756.23;106935;1276;22740;-80
2023/04/22 09:50:42;;;;;;;6.80;5.40;;;;;;;19.29;34.01;97756.58;106663;1262;22523;-79
2023/04/22 09:53:14;;;;;;;7.00;5.30;;;;;;;19.33;33.87;97754.86;106946;1276;22542;-79
2023/04/22 09:55:45;;;;;;;7.00;5.70;;;;;;;19.39;34.09;97754.52;106935;1276;22537;-79
2023/04/22 09:58:17;;;;;;;8.30;5.60;;;;;;;19.51;34.80;97752.10;107187;1276;22629;-81
2023/04/22 10:00:55;;;;;;;7.70;5.60;;;;;;;19.64;34.37;97751.42;107224;1276;22534;-80
2023/04/22 10:03:23;;;;;;;6.60;5.70;;;;;;;19.70;34.81;97749.91;106919;1276;22544;-79
2023/04/22 10:05:51;;;;;;;7.00;5.30;;;;;;;19.81;34.23;97746.52;106855;1276;23148;-78
2023/04/22 10:08:21;;;;;;;7.20;5.40;;;;;;;19.93;34.25;97747.20;106819;1276;22606;-78
2023/04/22 10:10:49;;;;;;;6.50;5.00;;;;;;;20.04;33.48;97741.05;106852;1276;22534;-77
2023/04/22 10:13:17;;;;;;;10.60;5.50;;;;;;;20.15;34.03;97744.84;106795;1276;23886;-78
2023/04/22 10:15:50;;;;;;;8.30;5.80;;;;;;;20.16;32.89;97740.64;106666;1254;25688;-78
2023/04/22 10:18:24;;;;;;;7.10;5.90;;;;;;;19.97;32.96;97742.43;106735;1276;22548;-79
2023/04/22 10:20:55;;;;;;;7.30;4.50;;;;;;;19.98;33.11;97735.34;107043;1276;24219;-77
2023/04/22 10:23:24;;;;;;;6.10;4.50;;;;;;;20.06;31.74;97734.06;106834;1276;25461;-78
2023/04/22 10:25:54;;;;;;;6.10;4.40;;;;;;;20.14;32.35;97730.36;106877;1276;22571;-79
2023/04/22 10:28:24;;;;;;;7.70;4.20;;;;;;;20.23;32.01;97734.96;106922;1276;23283;-78
2023/04/22 10:30:52;;;;;;;6.50;5.10;;;;;;;20.39;31.83;97735.38;107051;1276;25143;-82
2023/04/22 10:33:20;;;;;;;9.00;5.40;;;;;;;20.53;32.00;97734.81;106958;1276;22514;-81
2023/04/22 10:36:08;;;;;;;7.00;5.50;;;;;;;20.55;31.67;97727.50;106960;1276;24192;-82
2023/04/22 10:39:01;;;;;;;8.50;5.20;;;;;;;20.51;32.23;97725.63;106949;1270;24249;-81
2023/04/22 10:41:31;;;;;;;6.80;4.80;;;;;;;20.51;31.96;97724.06;106996;1267;23244;-80
2023/04/22 10:44:04;;;;;;;6.60;5.10;;;;;;;20.66;32.27;97724.70;106942;1276;22618;-82
2023/04/22 10:46:44;;;;;;;7.00;5.20;;;;;;;20.85;31.74;97722.00;106960;1276;25407;-80
2023/04/22 10:49:23;;;;;;;6.50;5.30;;;;;;;21.03;31.91;97726.30;106808;1276;22619;-82
2023/04/22 10:51:57;;;;;;;6.10;5.20;;;;;;;21.22;31.07;97722.07;106980;1276;24299;-82
2023/04/22 10:54:27;;;;;;;8.70;5.20;;;;;;;21.30;31.49;97718.83;106996;1276;22641;-82
2023/04/22 10:57:13;;;;;;;7.00;5.70;;;;;;;21.37;30.56;97720.08;107019;1276;22540;-80
2023/04/22 10:59:46;;;;;;;6.10;5.00;;;;;;;21.37;31.49;97719.61;107037;1276;22630;-82
2023/04/22 11:02:18;;;;;;;6.50;5.40;;;;;;;21.41;30.56;97716.27;106920;1276;22511;-83
2023/04/22 11:04:47;;;;;;;6.70;4.90;;;;;;;21.41;30.95;97715.27;106930;1276;22523;-80
2023/04/22 11:07:28;;;;;;;7.30;5.20;;;;;;;21.50;30.41;97715.52;106979;1276;22534;-82
2023/04/22 11:10:09;;;;;;;10.90;5.00;;;;;;;21.52;30.51;97709.28;106943;1276;23930;-81
2023/04/22 11:12:41;;;;;;;6.50;4.90;;;;;;;21.55;29.24;97706.88;106959;1276;22565;-81
2023/04/22 11:15:15;;;;;;;6.90;5.50;;;;;;;21.61;29.61;97707.97;106871;1276;24237;-82
2023/04/22 11:17:45;;;;;;;8.50;4.80;;;;;;;21.67;29.85;97704.20;107038;1276;22520;-82
2023/04/22 11:20:16;;;;;;;7.80;5.20;;;;;;;21.76;29.68;97699.41;106948;1276;25619;-82
2023/04/22 11:22:50;;;;;;;6.40;4.90;;;;;;;21.84;30.04;97699.10;106712;1276;22534;-82
2023/04/22 11:25:19;;;;;;;5.50;3.90;;;;;;;21.90;29.79;97694.22;106925;1276;24642;-81
2023/04/22 11:27:48;;;;;;;8.50;5.30;;;;;;;22.04;28.72;97694.88;106975;1276;24321;-80
2023/04/22 11:30:18;;;;;;;7.50;5.80;;;;;;;22.08;28.68;97695.31;106864;1276;22741;-83
2023/04/22 11:32:51;;;;;;;11.30;6.70;;;;;;;22.09;29.21;97694.07;106900;1276;23395;-83